Time;durP1;ratioP1;P1;durP2;ratioP2;P2;SDS_P1;SDS_P2;PMS_P1;PMS_P2;Temp;Humidity;BMP_temperature;BMP_pressure;BME280_temperature;BME280_humidity;BME280_pressure;Samples;Min_cycle;Max_cycle;Signal;HPM_P1;HPM_P2
2021/06/29 00:01:42;;;;;;;38.72;28.67;;;;;;;;;;5092531;28;38771;-81
2021/06/29 00:04:09;;;;;;;45.22;30.42;;;;;;;;;;5081971;28;37330;-79
2021/06/29 00:06:36;;;;;;;49.92;32.55;;;;;;;;;;5084908;28;38910;-81
2021/06/29 00:09:07;;;;;;;43.00;30.63;;;;;;;;;;5086741;28;39284;-82
2021/06/29 00:11:34;;;;;;;44.28;30.17;;;;;;;;;;5088235;28;38427;-81
2021/06/29 00:14:00;;;;;;;42.53;30.17;;;;;;;;;;5090696;28;37556;-81
2021/06/29 00:16:27;;;;;;;40.28;28.27;;;;;;;;;;5076963;28;42561;-81
2021/06/29 00:18:57;;;;;;;36.20;27.85;;;;;;;;;;5084167;28;37840;-81
2021/06/29 00:21:23;;;;;;;37.60;27.48;;;;;;;;;;5080152;28;38356;-80
2021/06/29 00:23:51;;;;;;;40.03;29.77;;;;;;;;;;5089652;28;37776;-82
2021/06/29 00:26:18;;;;;;;48.75;31.98;;;;;;;;;;5088201;27;39439;-80
2021/06/29 00:28:45;;;;;;;41.50;28.00;;;;;;;;;;5089798;28;39490;-81
2021/06/29 00:31:12;;;;;;;38.63;27.95;;;;;;;;;;5086500;28;38269;-81
2021/06/29 00:33:40;;;;;;;39.95;26.50;;;;;;;;;;5085181;28;37016;-81
2021/06/29 00:36:08;;;;;;;37.38;26.00;;;;;;;;;;5073067;27;37994;-81
2021/06/29 00:38:35;;;;;;;45.35;29.58;;;;;;;;;;5100864;28;39404;-81
2021/06/29 00:41:03;;;;;;;38.65;27.15;;;;;;;;;;5083852;28;39016;-80
2021/06/29 00:43:30;;;;;;;45.97;31.15;;;;;;;;;;5077822;28;38165;-80
2021/06/29 00:45:56;;;;;;;57.05;33.55;;;;;;;;;;5081486;28;37498;-81
2021/06/29 00:48:23;;;;;;;52.60;33.50;;;;;;;;;;5080363;28;37312;-81
2021/06/29 00:50:50;;;;;;;57.55;33.60;;;;;;;;;;5079959;28;37411;-81
2021/06/29 00:53:17;;;;;;;69.65;36.50;;;;;;;;;;5081471;28;36194;-80
2021/06/29 00:55:44;;;;;;;73.82;38.75;;;;;;;;;;5076007;28;37965;-80
2021/06/29 00:58:12;;;;;;;61.20;35.38;;;;;;;;;;5074249;28;37389;-80
2021/06/29 01:00:42;;;;;;;73.57;39.92;;;;;;;;;;5082119;28;38375;-82
2021/06/29 01:03:11;;;;;;;76.72;38.95;;;;;;;;;;5080958;28;37601;-81
2021/06/29 01:05:38;;;;;;;84.40;43.88;;;;;;;;;;5086877;28;38911;-80
2021/06/29 01:08:05;;;;;;;67.80;35.42;;;;;;;;;;5078954;28;38044;-80
2021/06/29 01:10:32;;;;;;;75.72;39.83;;;;;;;;;;5065655;28;37348;-80
2021/06/29 01:13:00;;;;;;;69.88;38.13;;;;;;;;;;5076789;28;37728;-80
2021/06/29 01:15:27;;;;;;;87.18;39.50;;;;;;;;;;5067580;28;40724;-81
2021/06/29 01:17:55;;;;;;;67.03;35.90;;;;;;;;;;5070121;28;36436;-80
2021/06/29 01:20:33;;;;;;;79.40;38.15;;;;;;;;;;5078601;28;37684;-80
2021/06/29 01:23:08;;;;;;;73.82;35.97;;;;;;;;;;5077419;28;36650;-81
2021/06/29 01:25:35;;;;;;;92.95;40.72;;;;;;;;;;5074476;28;47980;-81
2021/06/29 01:28:13;;;;;;;80.95;38.60;;;;;;;;;;5103981;28;39514;-81
2021/06/29 01:33:26;;;;;;;72.00;35.33;;;;;;;;;;5094836;28;38638;-80
2021/06/29 01:35:52;;;;;;;68.70;32.63;;;;;;;;;;5061397;28;38121;-80
2021/06/29 01:38:20;;;;;;;59.95;31.30;;;;;;;;;;5075901;28;37271;-81
2021/06/29 01:40:54;;;;;;;66.72;32.75;;;;;;;;;;5091872;27;38439;-82
2021/06/29 01:43:25;;;;;;;57.33;29.73;;;;;;;;;;5083517;28;39329;-81
2021/06/29 01:45:54;;;;;;;64.53;32.05;;;;;;;;;;5073332;28;39200;-81
2021/06/29 01:48:21;;;;;;;61.70;32.55;;;;;;;;;;5076500;28;37880;-80
2021/06/29 01:50:56;;;;;;;64.45;33.45;;;;;;;;;;5093317;28;37610;-80
2021/06/29 01:53:23;;;;;;;68.97;33.65;;;;;;;;;;5098218;28;39107;-81
2021/06/29 01:55:50;;;;;;;66.70;33.05;;;;;;;;;;5078503;28;38101;-81
2021/06/29 01:58:27;;;;;;;57.63;31.42;;;;;;;;;;5079497;28;38015;-81
2021/06/29 02:00:54;;;;;;;62.97;32.38;;;;;;;;;;5076089;28;38273;-80
2021/06/29 02:03:21;;;;;;;64.25;33.65;;;;;;;;;;5073757;28;35557;-81
2021/06/29 02:05:48;;;;;;;62.50;30.90;;;;;;;;;;5076753;28;39304;-81
2021/06/29 02:08:14;;;;;;;67.80;33.58;;;;;;;;;;5099182;28;38641;-80
2021/06/29 02:10:41;;;;;;;58.47;30.52;;;;;;;;;;5081284;28;37634;-81
2021/06/29 02:13:08;;;;;;;61.40;30.52;;;;;;;;;;5076210;28;37735;-81
2021/06/29 02:15:36;;;;;;;58.63;31.02;;;;;;;;;;5077064;28;39026;-79
2021/06/29 02:18:03;;;;;;;64.30;33.20;;;;;;;;;;5083870;28;39115;-80
2021/06/29 02:20:30;;;;;;;60.42;31.13;;;;;;;;;;5069652;28;37428;-80
2021/06/29 02:22:57;;;;;;;58.63;29.92;;;;;;;;;;5094815;28;37941;-80
2021/06/29 02:25:23;;;;;;;65.03;34.22;;;;;;;;;;5067950;28;37969;-79
2021/06/29 02:27:50;;;;;;;62.88;32.13;;;;;;;;;;5087617;28;39239;-80
2021/06/29 02:30:17;;;;;;;64.22;32.92;;;;;;;;;;5066082;28;37757;-80
2021/06/29 02:32:43;;;;;;;61.97;32.20;;;;;;;;;;5069796;28;37358;-79
2021/06/29 02:35:10;;;;;;;69.75;35.00;;;;;;;;;;5085644;28;38642;-80
2021/06/29 02:37:37;;;;;;;71.82;35.13;;;;;;;;;;5087149;28;37169;-80
2021/06/29 02:40:04;;;;;;;70.50;35.20;;;;;;;;;;5072194;28;35733;-80
2021/06/29 02:42:30;;;;;;;64.80;33.85;;;;;;;;;;5074205;28;47209;-80
2021/06/29 02:45:04;;;;;;;71.18;35.33;;;;;;;;;;5072630;28;38002;-80
2021/06/29 02:47:30;;;;;;;73.78;34.30;;;;;;;;;;5069165;28;46798;-80
2021/06/29 02:49:56;;;;;;;78.70;34.75;;;;;;;;;;5087617;28;39057;-80
2021/06/29 02:52:23;;;;;;;65.32;32.55;;;;;;;;;;5082927;28;37819;-80
2021/06/29 02:54:49;;;;;;;74.63;33.60;;;;;;;;;;5087328;28;37552;-79
2021/06/29 02:57:16;;;;;;;64.50;33.00;;;;;;;;;;5087171;27;38204;-80
2021/06/29 02:59:42;;;;;;;63.50;31.00;;;;;;;;;;5075959;28;37188;-80
2021/06/29 03:02:08;;;;;;;62.08;30.73;;;;;;;;;;5094965;28;37642;-80
2021/06/29 03:04:36;;;;;;;67.00;31.67;;;;;;;;;;5085602;28;38711;-81
2021/06/29 03:07:02;;;;;;;60.97;31.65;;;;;;;;;;5102723;28;39881;-80
2021/06/29 03:09:30;;;;;;;60.28;31.77;;;;;;;;;;5087866;28;38447;-80
2021/06/29 03:11:56;;;;;;;72.13;33.47;;;;;;;;;;5079563;28;36586;-80
2021/06/29 03:14:22;;;;;;;64.68;32.05;;;;;;;;;;5107772;27;37902;-80
2021/06/29 03:16:49;;;;;;;66.47;33.75;;;;;;;;;;5091927;28;38805;-80
2021/06/29 03:19:15;;;;;;;64.57;32.70;;;;;;;;;;5095361;28;37864;-80
2021/06/29 03:21:41;;;;;;;60.22;31.27;;;;;;;;;;5087845;27;37187;-79
2021/06/29 03:24:08;;;;;;;55.30;28.70;;;;;;;;;;5085730;28;40267;-79
2021/06/29 03:26:34;;;;;;;66.18;32.42;;;;;;;;;;5077847;28;37995;-79
2021/06/29 03:29:01;;;;;;;61.45;31.92;;;;;;;;;;5075402;28;37189;-79
2021/06/29 03:31:27;;;;;;;57.40;30.50;;;;;;;;;;5079988;28;36819;-79
2021/06/29 03:33:53;;;;;;;62.40;31.35;;;;;;;;;;5079847;28;38899;-79
2021/06/29 03:36:20;;;;;;;64.10;32.15;;;;;;;;;;5074574;28;38510;-80
2021/06/29 03:38:46;;;;;;;52.20;29.63;;;;;;;;;;5074942;28;39477;-80
2021/06/29 03:41:13;;;;;;;57.42;31.45;;;;;;;;;;5077885;28;38197;-80
2021/06/29 03:43:39;;;;;;;67.85;32.22;;;;;;;;;;5073922;28;37836;-80
2021/06/29 03:46:06;;;;;;;68.45;32.90;;;;;;;;;;5076951;28;39213;-79
2021/06/29 03:48:33;;;;;;;64.60;31.50;;;;;;;;;;5059566;28;38965;-80
2021/06/29 03:50:59;;;;;;;64.90;32.55;;;;;;;;;;5064659;28;35915;-80
2021/06/29 03:53:26;;;;;;;59.92;30.15;;;;;;;;;;5069080;28;39771;-81
2021/06/29 03:55:52;;;;;;;71.55;34.75;;;;;;;;;;5073060;28;38441;-80
2021/06/29 03:58:19;;;;;;;65.20;33.95;;;;;;;;;;5087534;28;37909;-80
2021/06/29 04:00:46;;;;;;;59.15;31.10;;;;;;;;;;5077851;28;39366;-80
2021/06/29 04:03:12;;;;;;;69.10;34.88;;;;;;;;;;5081157;28;39763;-81
2021/06/29 04:05:38;;;;;;;56.88;30.48;;;;;;;;;;5083244;28;38767;-80
2021/06/29 04:08:06;;;;;;;58.10;33.67;;;;;;;;;;5082606;28;39585;-81
2021/06/29 04:10:33;;;;;;;64.97;33.55;;;;;;;;;;5086437;28;36192;-81
2021/06/29 04:13:00;;;;;;;63.65;34.60;;;;;;;;;;5087464;28;40305;-81
2021/06/29 04:15:28;;;;;;;64.03;34.47;;;;;;;;;;5082758;28;38123;-80
2021/06/29 04:17:54;;;;;;;68.50;33.95;;;;;;;;;;5085883;28;38362;-81
2021/06/29 04:20:21;;;;;;;73.47;35.67;;;;;;;;;;5087538;28;38170;-82
2021/06/29 04:22:47;;;;;;;80.65;36.63;;;;;;;;;;5105242;28;39541;-81
2021/06/29 04:25:14;;;;;;;72.78;35.15;;;;;;;;;;5083982;28;36855;-81
2021/06/29 04:27:46;;;;;;;73.78;36.58;;;;;;;;;;5106959;28;39129;-81
2021/06/29 04:30:20;;;;;;;77.95;36.97;;;;;;;;;;5085838;28;36011;-81
2021/06/29 04:32:46;;;;;;;72.05;36.15;;;;;;;;;;5088488;28;40879;-81
2021/06/29 04:35:13;;;;;;;72.55;36.65;;;;;;;;;;5089048;28;37155;-80
2021/06/29 04:37:44;;;;;;;64.80;36.03;;;;;;;;;;5109544;28;39569;-82
2021/06/29 04:40:11;;;;;;;74.47;39.75;;;;;;;;;;5110475;28;37628;-81
2021/06/29 04:42:38;;;;;;;72.68;38.58;;;;;;;;;;5092073;28;39107;-81
2021/06/29 04:45:05;;;;;;;67.97;35.80;;;;;;;;;;5084725;28;38446;-79
2021/06/29 04:47:38;;;;;;;78.05;38.97;;;;;;;;;;5101228;28;38753;-80
2021/06/29 04:50:18;;;;;;;69.55;36.47;;;;;;;;;;5097554;28;36850;-80
2021/06/29 04:52:45;;;;;;;69.60;35.72;;;;;;;;;;5083679;28;39747;-81
2021/06/29 04:55:11;;;;;;;68.22;36.70;;;;;;;;;;5085389;28;37276;-81
2021/06/29 04:57:38;;;;;;;71.57;37.55;;;;;;;;;;5088786;28;39967;-80
2021/06/29 05:00:07;;;;;;;71.38;36.20;;;;;;;;;;5087096;28;35960;-80
2021/06/29 05:02:41;;;;;;;67.85;34.15;;;;;;;;;;5088311;28;47035;-80
2021/06/29 05:05:08;;;;;;;65.90;35.97;;;;;;;;;;5090834;27;38588;-82
2021/06/29 05:07:49;;;;;;;68.78;35.53;;;;;;;;;;5101619;28;38607;-80
2021/06/29 05:10:16;;;;;;;70.07;36.22;;;;;;;;;;5084764;27;38869;-82
2021/06/29 05:12:43;;;;;;;69.13;36.25;;;;;;;;;;5090392;28;39089;-82
2021/06/29 05:15:10;;;;;;;68.15;35.60;;;;;;;;;;5083572;28;36464;-81
2021/06/29 05:17:37;;;;;;;77.25;37.05;;;;;;;;;;5085779;28;38060;-80
2021/06/29 05:20:04;;;;;;;80.50;40.30;;;;;;;;;;5080185;28;37253;-81
2021/06/29 05:22:31;;;;;;;89.68;40.08;;;;;;;;;;5093125;28;38790;-81
2021/06/29 05:25:00;;;;;;;80.95;39.92;;;;;;;;;;5079188;28;38060;-81
2021/06/29 05:27:27;;;;;;;73.18;35.15;;;;;;;;;;5080450;28;37796;-79
2021/06/29 05:29:54;;;;;;;76.28;35.90;;;;;;;;;;5086665;28;36569;-81
2021/06/29 05:32:21;;;;;;;88.13;38.17;;;;;;;;;;5087238;28;37969;-80
2021/06/29 05:34:48;;;;;;;80.95;38.20;;;;;;;;;;5090025;28;37181;-82
2021/06/29 05:37:14;;;;;;;87.88;40.13;;;;;;;;;;5086035;28;37708;-81
2021/06/29 05:39:46;;;;;;;95.82;40.92;;;;;;;;;;5105667;28;38026;-82
2021/06/29 05:42:12;;;;;;;105.05;43.78;;;;;;;;;;5103908;28;40116;-81
2021/06/29 05:44:39;;;;;;;99.45;43.08;;;;;;;;;;5086119;28;38695;-81
2021/06/29 05:47:09;;;;;;;101.43;43.83;;;;;;;;;;5079566;28;38576;-81
2021/06/29 05:49:36;;;;;;;99.97;41.00;;;;;;;;;;5086700;28;35967;-81
2021/06/29 05:52:03;;;;;;;94.15;42.58;;;;;;;;;;5100392;28;39702;-81
2021/06/29 05:54:30;;;;;;;100.38;40.38;;;;;;;;;;5075076;28;37206;-80
2021/06/29 05:56:57;;;;;;;92.88;39.05;;;;;;;;;;5081451;28;38461;-80
2021/06/29 05:59:23;;;;;;;86.82;36.05;;;;;;;;;;5076008;28;36797;-80
2021/06/29 06:01:52;;;;;;;74.07;32.72;;;;;;;;;;5073326;28;36774;-80
2021/06/29 06:04:19;;;;;;;63.67;31.63;;;;;;;;;;5092210;28;39631;-81
2021/06/29 06:06:46;;;;;;;64.70;31.02;;;;;;;;;;5083942;28;37886;-81
2021/06/29 06:09:14;;;;;;;70.10;32.50;;;;;;;;;;5097637;28;35668;-82
2021/06/29 06:11:41;;;;;;;58.72;29.50;;;;;;;;;;5092339;28;40689;-83
2021/06/29 06:14:09;;;;;;;61.90;29.70;;;;;;;;;;5089621;28;38573;-81
2021/06/29 06:16:37;;;;;;;64.47;30.65;;;;;;;;;;5090600;28;38930;-81
2021/06/29 06:19:04;;;;;;;61.85;29.85;;;;;;;;;;5088849;28;37153;-81
2021/06/29 06:21:31;;;;;;;67.80;31.63;;;;;;;;;;5104690;28;40479;-81
2021/06/29 06:23:59;;;;;;;67.72;32.28;;;;;;;;;;5088674;28;39103;-81
2021/06/29 06:26:26;;;;;;;74.45;33.10;;;;;;;;;;5088173;28;38681;-82
2021/06/29 06:28:52;;;;;;;70.47;33.50;;;;;;;;;;5118672;28;38474;-81
2021/06/29 06:31:19;;;;;;;81.07;35.15;;;;;;;;;;5087784;27;38939;-82
2021/06/29 06:33:46;;;;;;;72.20;33.47;;;;;;;;;;5094722;28;39054;-82
2021/06/29 06:36:14;;;;;;;76.03;33.72;;;;;;;;;;5089751;28;38712;-82
2021/06/29 06:38:40;;;;;;;80.18;36.90;;;;;;;;;;5111899;28;37997;-81
2021/06/29 06:41:10;;;;;;;76.35;34.63;;;;;;;;;;5080554;28;37267;-81
2021/06/29 06:43:36;;;;;;;65.40;31.75;;;;;;;;;;5095156;28;38512;-81
2021/06/29 06:46:03;;;;;;;65.40;31.88;;;;;;;;;;5091134;28;38322;-82
2021/06/29 06:48:29;;;;;;;73.68;34.63;;;;;;;;;;5090940;28;36475;-82
2021/06/29 06:51:02;;;;;;;70.90;32.35;;;;;;;;;;5093306;28;39286;-81
2021/06/29 06:53:29;;;;;;;64.85;29.30;;;;;;;;;;5087608;28;48720;-81
2021/06/29 06:55:55;;;;;;;60.60;29.50;;;;;;;;;;5115865;27;39304;-82
2021/06/29 06:58:22;;;;;;;58.88;29.23;;;;;;;;;;5097729;28;37223;-82
2021/06/29 07:00:52;;;;;;;56.33;27.58;;;;;;;;;;5096243;28;40966;-80
2021/06/29 07:03:19;;;;;;;48.13;25.63;;;;;;;;;;5078369;28;38989;-80
2021/06/29 07:05:45;;;;;;;47.45;24.08;;;;;;;;;;5096537;28;39033;-80
2021/06/29 07:08:11;;;;;;;51.50;26.15;;;;;;;;;;5077413;28;36437;-79
2021/06/29 07:10:38;;;;;;;48.75;25.08;;;;;;;;;;5081250;28;38230;-80
2021/06/29 07:13:04;;;;;;;47.85;26.05;;;;;;;;;;5103952;28;39650;-79
2021/06/29 07:15:38;;;;;;;47.38;25.65;;;;;;;;;;5078760;28;38447;-79
2021/06/29 07:18:05;;;;;;;48.38;26.63;;;;;;;;;;5091337;28;37432;-79
2021/06/29 07:20:31;;;;;;;45.60;25.85;;;;;;;;;;5070409;28;37742;-79
2021/06/29 07:22:57;;;;;;;42.50;24.85;;;;;;;;;;5093470;28;39819;-80
2021/06/29 07:25:24;;;;;;;40.20;24.50;;;;;;;;;;5095995;28;38849;-80
2021/06/29 07:27:50;;;;;;;37.40;23.67;;;;;;;;;;5077689;28;38029;-79
2021/06/29 07:30:17;;;;;;;33.72;22.55;;;;;;;;;;5080689;28;39433;-81
2021/06/29 07:32:43;;;;;;;35.63;23.00;;;;;;;;;;5089786;28;38152;-80
2021/06/29 07:35:11;;;;;;;32.30;20.65;;;;;;;;;;5075875;28;38002;-79
2021/06/29 07:37:37;;;;;;;30.95;22.40;;;;;;;;;;5089148;28;37616;-80
2021/06/29 07:40:04;;;;;;;32.50;22.48;;;;;;;;;;5081743;28;40350;-80
2021/06/29 07:42:31;;;;;;;28.42;19.63;;;;;;;;;;5080430;28;47182;-79
2021/06/29 07:44:57;;;;;;;32.10;22.50;;;;;;;;;;5099925;28;38542;-79
2021/06/29 07:47:24;;;;;;;32.75;22.88;;;;;;;;;;5098619;27;36872;-79
2021/06/29 07:49:50;;;;;;;32.08;22.48;;;;;;;;;;5076749;28;39948;-79
2021/06/29 07:52:17;;;;;;;31.38;22.00;;;;;;;;;;5064281;28;38339;-79
2021/06/29 07:54:43;;;;;;;29.42;21.70;;;;;;;;;;5072634;28;39766;-80
2021/06/29 07:57:10;;;;;;;30.55;20.00;;;;;;;;;;5089873;28;38048;-79
2021/06/29 07:59:36;;;;;;;27.77;19.70;;;;;;;;;;5093730;28;40180;-79
2021/06/29 08:02:03;;;;;;;23.95;18.05;;;;;;;;;;5091630;27;38794;-79
2021/06/29 08:04:30;;;;;;;20.20;17.38;;;;;;;;;;5076493;28;39230;-79
2021/06/29 08:06:56;;;;;;;27.25;19.77;;;;;;;;;;5098639;28;37392;-80
2021/06/29 08:09:22;;;;;;;26.83;21.13;;;;;;;;;;5070519;28;37909;-78
2021/06/29 08:11:49;;;;;;;22.30;17.73;;;;;;;;;;5088343;28;39382;-79
2021/06/29 08:14:23;;;;;;;25.02;18.42;;;;;;;;;;5071380;28;37584;-78
2021/06/29 08:16:49;;;;;;;19.75;16.55;;;;;;;;;;5078077;28;38399;-80
2021/06/29 08:19:31;;;;;;;19.83;16.35;;;;;;;;;;5090007;28;37968;-81
2021/06/29 08:21:57;;;;;;;17.77;15.48;;;;;;;;;;5089089;28;37385;-78
2021/06/29 08:24:24;;;;;;;16.95;15.05;;;;;;;;;;5067849;28;37399;-78
2021/06/29 08:26:50;;;;;;;18.42;15.85;;;;;;;;;;5072926;28;37288;-79
2021/06/29 08:29:17;;;;;;;15.88;13.52;;;;;;;;;;5066583;28;39117;-78
2021/06/29 08:31:43;;;;;;;16.67;14.95;;;;;;;;;;5070127;28;38408;-78
2021/06/29 08:34:10;;;;;;;15.13;13.52;;;;;;;;;;5070383;28;38500;-79
2021/06/29 08:36:43;;;;;;;16.23;13.82;;;;;;;;;;5066766;28;38383;-78
2021/06/29 08:39:10;;;;;;;17.23;14.05;;;;;;;;;;5066988;28;39025;-78
2021/06/29 08:41:39;;;;;;;18.38;15.75;;;;;;;;;;5065859;27;39405;-79
2021/06/29 08:44:06;;;;;;;21.80;16.13;;;;;;;;;;5065453;28;38329;-80
2021/06/29 08:46:35;;;;;;;16.85;14.90;;;;;;;;;;5065765;28;35918;-77
2021/06/29 08:49:06;;;;;;;20.48;15.68;;;;;;;;;;5056964;28;38106;-76
2021/06/29 08:51:34;;;;;;;19.20;15.93;;;;;;;;;;5068087;28;39412;-77
2021/06/29 08:54:04;;;;;;;20.98;18.17;;;;;;;;;;5062301;28;41129;-77
2021/06/29 08:56:30;;;;;;;28.58;19.85;;;;;;;;;;5064241;28;47382;-77
2021/06/29 08:58:57;;;;;;;24.67;18.35;;;;;;;;;;5064404;28;39711;-78
2021/06/29 09:01:27;;;;;;;22.55;18.58;;;;;;;;;;5064794;28;38618;-78
2021/06/29 09:03:55;;;;;;;22.50;17.65;;;;;;;;;;5070225;28;38001;-78
2021/06/29 09:06:30;;;;;;;27.20;22.48;;;;;;;;;;5067132;28;37025;-78
2021/06/29 09:08:56;;;;;;;29.80;24.88;;;;;;;;;;5073462;28;39179;-77
2021/06/29 09:11:23;;;;;;;30.58;26.70;;;;;;;;;;5075479;28;37653;-80
2021/06/29 09:14:04;;;;;;;32.83;26.48;;;;;;;;;;5080537;28;38459;-80
2021/06/29 09:16:43;;;;;;;34.33;28.40;;;;;;;;;;5076980;28;47315;-79
2021/06/29 09:19:09;;;;;;;24.55;21.58;;;;;;;;;;5077260;28;40974;-80
2021/06/29 09:21:36;;;;;;;23.83;19.73;;;;;;;;;;5086657;28;38706;-82
2021/06/29 09:24:05;;;;;;;24.10;20.80;;;;;;;;;;5098184;28;38793;-79
2021/06/29 09:26:38;;;;;;;21.55;18.58;;;;;;;;;;5095048;27;37510;-79
2021/06/29 09:29:08;;;;;;;28.50;19.65;;;;;;;;;;5098902;28;39451;-78
2021/06/29 09:31:43;;;;;;;25.23;19.95;;;;;;;;;;5077363;28;47759;-78
2021/06/29 09:34:12;;;;;;;27.83;19.40;;;;;;;;;;5078212;28;37083;-80
2021/06/29 09:36:39;;;;;;;18.90;14.52;;;;;;;;;;5085297;28;36650;-79
2021/06/29 09:39:17;;;;;;;21.00;14.85;;;;;;;;;;5104375;28;39181;-80
2021/06/29 09:41:47;;;;;;;17.63;13.57;;;;;;;;;;5104326;28;37571;-78
2021/06/29 09:44:18;;;;;;;20.50;12.43;;;;;;;;;;5105491;28;37442;-80
2021/06/29 09:46:45;;;;;;;16.75;11.55;;;;;;;;;;5107884;28;37846;-80
2021/06/29 09:49:14;;;;;;;16.30;10.68;;;;;;;;;;5107118;28;39645;-80
2021/06/29 09:51:42;;;;;;;13.52;9.55;;;;;;;;;;5087693;28;38738;-79
2021/06/29 09:54:10;;;;;;;17.70;10.30;;;;;;;;;;5100522;28;38715;-80
2021/06/29 09:56:39;;;;;;;13.07;9.50;;;;;;;;;;5089783;28;35870;-80
2021/06/29 09:59:11;;;;;;;17.42;11.15;;;;;;;;;;5082436;28;38620;-79
2021/06/29 10:01:37;;;;;;;17.92;10.77;;;;;;;;;;5090719;28;38655;-80
2021/06/29 10:04:04;;;;;;;13.88;9.32;;;;;;;;;;5089358;28;38116;-79
2021/06/29 10:06:32;;;;;;;18.55;10.98;;;;;;;;;;5091933;28;36419;-80
2021/06/29 10:09:06;;;;;;;15.60;10.18;;;;;;;;;;5108183;28;39784;-78
2021/06/29 10:11:34;;;;;;;13.95;9.88;;;;;;;;;;5083550;28;46972;-79
2021/06/29 10:14:02;;;;;;;16.98;10.20;;;;;;;;;;5081578;28;38418;-79
2021/06/29 10:16:40;;;;;;;13.23;8.52;;;;;;;;;;5084194;28;48236;-80
2021/06/29 10:21:39;;;;;;;17.02;8.77;;;;;;;;;;5103572;28;37390;-80
2021/06/29 10:24:07;;;;;;;16.98;10.00;;;;;;;;;;5103276;28;38170;-79
2021/06/29 10:26:34;;;;;;;18.50;9.23;;;;;;;;;;5074325;28;38084;-79
2021/06/29 10:29:07;;;;;;;11.63;7.53;;;;;;;;;;5079204;28;38436;-79
2021/06/29 10:31:35;;;;;;;13.05;8.60;;;;;;;;;;5100340;28;48589;-80
2021/06/29 10:34:03;;;;;;;16.33;8.32;;;;;;;;;;5078989;28;39334;-78
2021/06/29 10:36:30;;;;;;;16.58;9.40;;;;;;;;;;5075131;28;47323;-77
2021/06/29 10:38:58;;;;;;;12.77;8.35;;;;;;;;;;5081715;28;37667;-79
2021/06/29 10:41:25;;;;;;;15.80;8.50;;;;;;;;;;5092319;28;38413;-79
2021/06/29 10:43:52;;;;;;;13.45;8.27;;;;;;;;;;5076799;28;38182;-79
2021/06/29 10:46:30;;;;;;;11.00;7.40;;;;;;;;;;5076096;28;36189;-78
2021/06/29 10:48:57;;;;;;;13.07;7.63;;;;;;;;;;5079222;28;38837;-79
2021/06/29 10:51:36;;;;;;;11.50;7.72;;;;;;;;;;5077030;28;37825;-79
2021/06/29 10:54:03;;;;;;;8.90;6.72;;;;;;;;;;5093448;28;39239;-78
2021/06/29 10:56:49;;;;;;;12.20;7.55;;;;;;;;;;5075673;28;38535;-79
2021/06/29 10:59:16;;;;;;;12.45;7.63;;;;;;;;;;5084345;28;38304;-80
2021/06/29 11:01:54;;;;;;;11.57;7.63;;;;;;;;;;5098861;28;37805;-80
2021/06/29 11:04:40;;;;;;;11.35;7.40;;;;;;;;;;5087184;28;38993;-80
2021/06/29 11:07:25;;;;;;;9.95;7.50;;;;;;;;;;5090550;28;36780;-79
2021/06/29 11:09:57;;;;;;;12.38;7.88;;;;;;;;;;5098151;28;39269;-79
2021/06/29 11:12:28;;;;;;;12.48;7.50;;;;;;;;;;5078785;28;37389;-79
2021/06/29 11:14:56;;;;;;;11.15;7.97;;;;;;;;;;5101700;28;38221;-79
2021/06/29 11:17:23;;;;;;;13.23;8.70;;;;;;;;;;5085752;28;37781;-79
2021/06/29 11:20:08;;;;;;;14.23;9.20;;;;;;;;;;5098941;28;39471;-79
2021/06/29 11:22:53;;;;;;;13.23;8.18;;;;;;;;;;5049142;28;47314;-80
2021/06/29 11:25:35;;;;;;;15.15;9.75;;;;;;;;;;5079168;28;38819;-79
2021/06/29 11:28:03;;;;;;;14.27;8.23;;;;;;;;;;5084246;28;36982;-79
2021/06/29 11:30:48;;;;;;;12.82;9.18;;;;;;;;;;5086787;27;37935;-80
2021/06/29 11:33:31;;;;;;;12.27;8.40;;;;;;;;;;5076408;28;38329;-79
2021/06/29 11:35:57;;;;;;;18.20;8.75;;;;;;;;;;5081424;28;38604;-80
2021/06/29 11:38:34;;;;;;;14.60;9.13;;;;;;;;;;5086007;28;36973;-79
2021/06/29 11:41:19;;;;;;;11.07;7.60;;;;;;;;;;5078111;28;38947;-80
2021/06/29 11:43:46;;;;;;;12.38;7.20;;;;;;;;;;5073225;28;47058;-78
2021/06/29 11:46:32;;;;;;;14.15;8.60;;;;;;;;;;5069049;28;39121;-80
2021/06/29 11:49:07;;;;;;;13.50;7.93;;;;;;;;;;5078061;28;36412;-80
2021/06/29 11:51:52;;;;;;;12.45;7.18;;;;;;;;;;5084900;28;49138;-80
2021/06/29 11:54:33;;;;;;;16.60;7.88;;;;;;;;;;5079656;28;39183;-80
2021/06/29 11:57:00;;;;;;;15.43;7.60;;;;;;;;;;5075541;28;39456;-78
2021/06/29 11:59:31;;;;;;;12.68;6.40;;;;;;;;;;5076167;28;37041;-80
2021/06/29 12:02:08;;;;;;;12.82;7.00;;;;;;;;;;5082492;28;39013;-79
2021/06/29 12:04:34;;;;;;;13.63;6.72;;;;;;;;;;5078049;28;48186;-79
2021/06/29 12:07:02;;;;;;;11.93;6.90;;;;;;;;;;5073916;28;37086;-80
2021/06/29 12:09:29;;;;;;;13.15;6.25;;;;;;;;;;5084622;28;47123;-80
2021/06/29 12:12:16;;;;;;;10.15;6.72;;;;;;;;;;5083249;28;38635;-79
2021/06/29 12:14:43;;;;;;;9.75;6.03;;;;;;;;;;5078421;28;48681;-80
2021/06/29 12:17:10;;;;;;;10.10;5.30;;;;;;;;;;5077915;28;38955;-78
2021/06/29 12:19:37;;;;;;;10.52;6.50;;;;;;;;;;5081652;28;37083;-80
2021/06/29 12:22:05;;;;;;;11.73;6.80;;;;;;;;;;5078709;28;39192;-78
2021/06/29 12:24:31;;;;;;;11.00;6.40;;;;;;;;;;5068252;28;39244;-79
2021/06/29 12:26:57;;;;;;;11.65;6.13;;;;;;;;;;5070007;28;38192;-80
2021/06/29 12:29:33;;;;;;;11.95;7.10;;;;;;;;;;5079362;28;36419;-81
2021/06/29 12:31:59;;;;;;;10.85;6.68;;;;;;;;;;5089935;28;38096;-80
2021/06/29 12:34:26;;;;;;;13.60;7.35;;;;;;;;;;5092081;28;39877;-80
2021/06/29 12:36:52;;;;;;;14.40;7.57;;;;;;;;;;5085635;28;37419;-80
2021/06/29 12:39:21;;;;;;;16.45;7.90;;;;;;;;;;5084544;28;38671;-80
2021/06/29 12:41:48;;;;;;;19.80;7.68;;;;;;;;;;5082269;28;38726;-80
2021/06/29 12:44:15;;;;;;;15.52;8.00;;;;;;;;;;5085431;28;38482;-80
2021/06/29 12:46:43;;;;;;;11.95;7.05;;;;;;;;;;5084235;28;39026;-79
2021/06/29 12:49:27;;;;;;;13.07;7.40;;;;;;;;;;5082530;28;36158;-79
2021/06/29 12:52:09;;;;;;;16.85;7.32;;;;;;;;;;5102469;27;37757;-80
2021/06/29 12:54:36;;;;;;;11.05;6.78;;;;;;;;;;5079377;28;49121;-79
2021/06/29 13:23:41;;;;;;;10.85;6.57;;;;;;;;;;5865859;22;20048;-82
2021/06/29 13:26:08;;;;;;;9.60;6.10;;;;;;;;;;6015277;22;38791;-81
2021/06/29 13:37:31;;;;;;;12.60;6.43;;;;;;;;;;5627214;22;20898;-81
2021/06/29 13:40:21;;;;;;;10.65;6.40;;;;;;;;;;5264920;22;39247;-80
2021/06/29 13:43:04;;;;;;;12.15;5.50;;;;;;;;;;5073404;27;48610;-80
2021/06/29 13:45:38;;;;;;;14.02;6.05;;;;;;;;;;5068804;28;48295;-80
2021/06/29 13:48:07;;;;;;;10.25;5.45;;;;;;;;;;5116473;22;38558;-82
2021/06/29 13:55:53;;;;;;;10.82;5.20;;;;;;;;;;5634874;22;20036;-81
2021/06/29 13:58:21;;;;;;;10.90;5.15;;;;;;;;;;5109651;27;37575;-80
2021/06/29 14:00:57;;;;;;;7.28;4.72;;;;;;;;;;5127015;27;37978;-81
2021/06/29 14:03:28;;;;;;;11.18;4.55;;;;;;;;;;5114680;27;38175;-80
2021/06/29 14:06:06;;;;;;;7.60;4.20;;;;;;;;;;5097932;28;38771;-81
2021/06/29 14:08:41;;;;;;;6.35;4.00;;;;;;;;;;5120231;27;48422;-81
2021/06/29 14:11:15;;;;;;;10.85;4.47;;;;;;;;;;5115331;27;39415;-84
2021/06/29 14:13:45;;;;;;;10.05;4.82;;;;;;;;;;5129914;27;37979;-81
2021/06/29 14:16:14;;;;;;;9.38;4.80;;;;;;;;;;5337262;22;39222;-81
2021/06/29 14:18:41;;;;;;;10.57;4.90;;;;;;;;;;5102297;28;37209;-82
2021/06/29 14:21:18;;;;;;;12.70;5.55;;;;;;;;;;5111790;27;39582;-84
2021/06/29 14:44:35;;;;;;;3.97;3.20;;;;;;;;;;6029049;22;20055;-81
2021/06/29 14:55:18;;;;;;;4.90;3.55;;;;;;;;;;5125212;22;20048;-81
2021/06/29 14:57:47;;;;;;;7.63;3.90;;;;;;;;;;5104526;27;38367;-80
2021/06/29 15:00:20;;;;;;;6.18;3.88;;;;;;;;;;5096978;28;37966;-80
2021/06/29 15:02:51;;;;;;;5.88;3.85;;;;;;;;;;5103213;28;38355;-81
2021/06/29 15:05:21;;;;;;;8.45;3.50;;;;;;;;;;5114193;27;36097;-81
2021/06/29 15:07:59;;;;;;;5.60;3.13;;;;;;;;;;5112131;27;38775;-83
2021/06/29 15:10:27;;;;;;;7.15;3.22;;;;;;;;;;5113490;27;38403;-80
2021/06/29 15:12:54;;;;;;;10.07;3.42;;;;;;;;;;5109251;27;38382;-81
2021/06/29 15:15:21;;;;;;;6.28;2.60;;;;;;;;;;5097187;28;36100;-80
2021/06/29 15:17:49;;;;;;;5.15;2.78;;;;;;;;;;5110143;27;38407;-81
2021/06/29 15:20:19;;;;;;;3.22;2.65;;;;;;;;;;5118068;27;38624;-81
2021/06/29 15:22:46;;;;;;;4.80;2.17;;;;;;;;;;5119666;27;39087;-81
2021/06/29 15:25:14;;;;;;;3.90;2.10;;;;;;;;;;5086547;27;36786;-80
2021/06/29 15:27:40;;;;;;;7.05;2.83;;;;;;;;;;5110679;27;38260;-80
2021/06/29 15:30:08;;;;;;;3.95;2.30;;;;;;;;;;5123941;27;39768;-82
2021/06/29 15:32:35;;;;;;;7.13;2.75;;;;;;;;;;5107510;28;48561;-82
2021/06/29 15:35:09;;;;;;;6.82;2.60;;;;;;;;;;5117204;28;35438;-81
2021/06/29 15:37:36;;;;;;;6.25;2.58;;;;;;;;;;5123008;28;47265;-79
2021/06/29 15:40:13;;;;;;;3.33;1.88;;;;;;;;;;5116242;28;37750;-80
2021/06/29 15:42:39;;;;;;;5.95;2.00;;;;;;;;;;5107258;28;47077;-81
2021/06/29 15:45:06;;;;;;;4.18;2.40;;;;;;;;;;5112643;28;37193;-81
2021/06/29 15:47:34;;;;;;;3.40;2.10;;;;;;;;;;5112614;27;37889;-79